Time;durP1;ratioP1;P1;durP2;ratioP2;P2;SDS_P1;SDS_P2;PMS_P1;PMS_P2;Temp;Humidity;BMP_temperature;BMP_pressure;BME280_temperature;BME280_humidity;BME280_pressure;Samples;Min_cycle;Max_cycle;Signal;HPM_P1;HPM_P2
2023/08/29 00:01:23;;;;;;;8.50;3.90;;;;;;;23.99;48.79;100208.75;107280;1259;107861;-66
2023/08/29 00:03:52;;;;;;;13.10;3.70;;;;;;;23.98;48.65;100206.73;107256;1259;97951;-65
2023/08/29 00:06:20;;;;;;;17.30;4.20;;;;;;;23.99;49.56;100204.23;107353;1254;97732;-65
2023/08/29 00:08:48;;;;;;;8.10;3.10;;;;;;;23.92;49.43;100204.50;107318;1254;111214;-64
2023/08/29 00:11:17;;;;;;;8.10;3.50;;;;;;;23.90;49.33;100210.20;107314;1254;109760;-66
2023/08/29 00:13:45;;;;;;;15.30;3.20;;;;;;;23.87;49.52;100207.08;107296;1254;107207;-65
2023/08/29 00:16:16;;;;;;;12.20;3.80;;;;;;;23.83;49.45;100203.61;107286;1256;97976;-66
2023/08/29 00:18:44;;;;;;;15.70;3.70;;;;;;;23.78;49.68;100201.64;107325;1256;97717;-65
2023/08/29 00:21:13;;;;;;;6.30;3.20;;;;;;;23.71;49.96;100202.20;107343;1257;112143;-65
2023/08/29 00:23:42;;;;;;;15.80;3.80;;;;;;;23.69;49.98;100203.89;107309;1254;109266;-65
2023/08/29 00:26:10;;;;;;;9.20;3.90;;;;;;;23.68;50.08;100197.59;107282;1254;107623;-65
2023/08/29 00:28:40;;;;;;;15.10;4.50;;;;;;;23.67;50.31;100200.61;107233;1255;98007;-65
2023/08/29 00:31:11;;;;;;;7.90;3.10;;;;;;;23.64;50.39;100199.75;107300;1254;97737;-63
2023/08/29 00:33:39;;;;;;;8.90;3.30;;;;;;;23.63;50.35;100206.88;107345;1256;111486;-65
2023/08/29 00:36:08;;;;;;;11.20;3.80;;;;;;;23.61;50.28;100208.70;107206;1254;109981;-65
2023/08/29 00:38:36;;;;;;;11.70;3.80;;;;;;;23.59;50.78;100207.34;107268;1258;107405;-64
2023/08/29 00:41:04;;;;;;;7.50;3.00;;;;;;;23.58;50.64;100209.39;107157;1257;97920;-65
2023/08/29 00:43:33;;;;;;;8.50;3.20;;;;;;;23.56;50.46;100205.74;107297;1256;97849;-64
2023/08/29 00:46:03;;;;;;;11.70;3.90;;;;;;;23.55;50.73;100207.23;107305;1257;112185;-64
2023/08/29 00:48:31;;;;;;;14.80;3.80;;;;;;;23.51;50.83;100206.96;107424;1254;108725;-64
2023/08/29 00:50:59;;;;;;;16.00;3.60;;;;;;;23.50;50.80;100203.20;107159;1260;107833;-64
2023/08/29 00:53:28;;;;;;;14.30;3.40;;;;;;;23.45;50.63;100206.04;107215;1254;97844;-65
2023/08/29 00:55:57;;;;;;;8.30;3.90;;;;;;;23.42;50.88;100201.79;107334;1256;98992;-64
2023/08/29 00:58:25;;;;;;;12.60;3.10;;;;;;;23.39;51.02;100202.92;107317;1254;111716;-65
2023/08/29 01:00:54;;;;;;;10.00;4.20;;;;;;;23.36;50.95;100198.20;107163;1254;109161;-65
2023/08/29 01:03:23;;;;;;;9.40;3.20;;;;;;;23.35;51.26;100200.98;107307;1257;107589;-66
2023/08/29 01:05:51;;;;;;;9.60;3.60;;;;;;;23.33;51.18;100202.14;107383;1254;97928;-65
2023/08/29 01:08:20;;;;;;;12.80;3.50;;;;;;;23.30;51.14;100201.55;107240;1254;98462;-65
2023/08/29 01:10:51;;;;;;;11.30;3.70;;;;;;;23.24;51.20;100204.43;107283;1257;111333;-65
2023/08/29 01:13:38;;;;;;;9.40;3.40;;;;;;;23.22;51.12;100201.50;107320;1257;110143;-65
2023/08/29 01:16:10;;;;;;;8.50;3.40;;;;;;;23.17;52.04;100198.23;107275;1259;108334;-66
2023/08/29 01:18:40;;;;;;;18.50;3.80;;;;;;;23.12;51.74;100202.25;107297;1259;97918;-65
2023/08/29 01:21:18;;;;;;;17.90;3.70;;;;;;;23.09;51.67;100202.14;107360;1257;98475;-65
2023/08/29 01:24:04;;;;;;;13.70;3.70;;;;;;;23.04;51.61;100199.75;107283;1254;111088;-64
2023/08/29 01:26:34;;;;;;;17.10;4.30;;;;;;;23.01;51.37;100197.80;107284;1254;109701;-64
2023/08/29 01:29:03;;;;;;;10.40;3.70;;;;;;;23.00;51.46;100194.48;107272;1254;107048;-65
2023/08/29 01:31:34;;;;;;;9.00;3.90;;;;;;;22.97;51.59;100196.55;107259;1254;97867;-65
2023/08/29 01:34:02;;;;;;;16.80;4.20;;;;;;;22.94;51.80;100191.15;107375;1254;98895;-65
2023/08/29 01:36:42;;;;;;;9.90;3.60;;;;;;;22.89;51.81;100193.90;107309;1255;112204;-65
2023/08/29 01:39:10;;;;;;;11.80;3.80;;;;;;;22.87;51.84;100196.91;107286;1257;109680;-65
2023/08/29 01:41:39;;;;;;;9.90;4.00;;;;;;;22.84;51.73;100199.10;107207;1254;107755;-65
2023/08/29 01:44:08;;;;;;;8.30;3.30;;;;;;;22.82;51.91;100196.63;107241;1259;97819;-65
2023/08/29 01:46:37;;;;;;;17.80;5.00;;;;;;;22.81;51.89;100198.68;107289;1257;99639;-65
2023/08/29 01:49:06;;;;;;;23.60;3.80;;;;;;;22.78;51.90;100195.10;107287;1257;113327;-66
2023/08/29 01:51:34;;;;;;;9.00;4.30;;;;;;;22.76;51.89;100195.20;107295;1257;108416;-66
2023/08/29 01:54:03;;;;;;;13.60;3.40;;;;;;;22.73;51.94;100195.45;107298;1257;108624;-65
2023/08/29 01:56:32;;;;;;;8.30;3.50;;;;;;;22.70;52.19;100195.74;107318;1255;97847;-65
2023/08/29 01:59:01;;;;;;;8.90;3.50;;;;;;;22.67;52.23;100198.69;107257;1257;97833;-66
2023/08/29 02:01:30;;;;;;;17.80;3.70;;;;;;;22.64;52.14;100204.67;107113;1260;110885;-65
2023/08/29 02:03:58;;;;;;;13.50;4.00;;;;;;;22.62;52.28;100204.45;107378;1257;109543;-65
2023/08/29 02:06:28;;;;;;;8.10;3.20;;;;;;;22.60;52.37;100206.48;107235;1254;107635;-65
2023/08/29 02:08:56;;;;;;;13.00;4.00;;;;;;;22.58;52.31;100207.02;107273;1257;97915;-65
2023/08/29 02:11:25;;;;;;;11.10;3.80;;;;;;;22.56;52.46;100206.20;107274;1257;97851;-64
2023/08/29 02:13:57;;;;;;;6.90;3.90;;;;;;;22.50;52.79;100205.98;107209;1254;113504;-65
2023/08/29 02:16:26;;;;;;;17.20;4.30;;;;;;;22.46;52.72;100209.14;107333;1256;110011;-65
2023/08/29 02:18:54;;;;;;;27.60;4.20;;;;;;;22.42;52.74;100206.45;107278;1255;107970;-65
2023/08/29 02:21:24;;;;;;;15.10;4.20;;;;;;;22.40;52.65;100210.81;107263;1257;97857;-64
2023/08/29 02:23:52;;;;;;;16.20;4.00;;;;;;;22.37;52.78;100210.17;107322;1257;98370;-65
2023/08/29 02:26:20;;;;;;;14.10;5.30;;;;;;;22.37;52.86;100209.39;107325;1254;111956;-65
2023/08/29 02:28:52;;;;;;;20.80;4.50;;;;;;;22.34;53.13;100211.58;107316;1257;109634;-65
2023/08/29 02:31:20;;;;;;;16.60;4.70;;;;;;;22.31;53.39;100209.83;107293;1254;107184;-65
2023/08/29 02:33:48;;;;;;;16.00;4.20;;;;;;;22.28;53.34;100212.95;107294;1254;97821;-64
2023/08/29 02:36:16;;;;;;;13.60;4.00;;;;;;;22.26;53.31;100210.98;107210;1257;97713;-65
2023/08/29 02:38:45;;;;;;;9.00;3.50;;;;;;;22.25;53.13;100213.48;107371;1254;112259;-64
2023/08/29 02:41:13;;;;;;;14.60;4.00;;;;;;;22.25;53.28;100211.34;107327;1257;109654;-65
2023/08/29 02:43:42;;;;;;;36.50;5.40;;;;;;;22.21;53.55;100213.47;107166;1257;108650;-65
2023/08/29 02:46:11;;;;;;;19.40;4.80;;;;;;;22.16;53.50;100208.31;107302;1254;97857;-64
2023/08/29 02:48:39;;;;;;;19.50;4.40;;;;;;;22.15;53.65;100216.79;107313;1254;97797;-65
2023/08/29 02:51:07;;;;;;;10.90;4.20;;;;;;;22.13;53.91;100219.80;107120;1257;111836;-65
2023/08/29 02:53:36;;;;;;;15.10;4.00;;;;;;;22.10;54.76;100219.28;107321;1254;109523;-65
2023/08/29 02:56:04;;;;;;;10.60;4.10;;;;;;;22.06;54.57;100221.98;107278;1259;107728;-64
2023/08/29 02:58:32;;;;;;;13.40;4.30;;;;;;;22.01;55.00;100224.85;107291;1256;97845;-64
2023/08/29 03:01:01;;;;;;;22.20;3.90;;;;;;;21.96;55.49;100220.64;107313;1257;97850;-63
2023/08/29 03:03:31;;;;;;;29.70;5.20;;;;;;;21.91;55.10;100217.80;107327;1258;112339;-65
2023/08/29 03:05:59;;;;;;;21.80;5.30;;;;;;;21.90;55.16;100212.36;107282;1259;109731;-65
2023/08/29 03:08:28;;;;;;;25.10;5.20;;;;;;;21.90;55.35;100208.36;107278;1253;108575;-64
2023/08/29 03:11:03;;;;;;;28.60;4.90;;;;;;;21.89;55.52;100205.59;107233;1255;97873;-64
2023/08/29 03:13:32;;;;;;;17.00;3.80;;;;;;;21.88;55.16;100208.38;107175;1256;97840;-66
2023/08/29 03:16:00;;;;;;;29.30;5.40;;;;;;;21.88;55.13;100208.75;107295;1257;111884;-65
2023/08/29 03:18:29;;;;;;;28.20;5.80;;;;;;;21.89;55.38;100212.74;107269;1254;110243;-66
2023/08/29 03:21:04;;;;;;;20.20;4.40;;;;;;;21.90;55.33;100215.91;107302;1254;108585;-66
2023/08/29 03:23:34;;;;;;;17.50;4.40;;;;;;;21.88;55.07;100214.33;107263;1256;97823;-65
2023/08/29 03:26:06;;;;;;;23.60;4.50;;;;;;;21.86;55.01;100213.70;107319;1254;97886;-65
2023/08/29 03:28:38;;;;;;;16.50;4.80;;;;;;;21.85;54.97;100214.12;107330;1254;111192;-65
2023/08/29 03:31:12;;;;;;;14.00;4.40;;;;;;;21.86;54.95;100212.57;107164;1254;110072;-66
2023/08/29 03:33:41;;;;;;;21.90;4.40;;;;;;;21.85;54.94;100215.94;107331;1257;108815;-65
2023/08/29 03:36:10;;;;;;;14.10;4.30;;;;;;;21.86;54.92;100219.85;107217;1254;97866;-64
2023/08/29 03:38:41;;;;;;;22.60;4.80;;;;;;;21.86;54.86;100219.19;107295;1257;97841;-65
2023/08/29 03:41:09;;;;;;;13.50;4.10;;;;;;;21.85;55.06;100221.13;107258;1254;110449;-64
2023/08/29 03:43:38;;;;;;;10.70;4.40;;;;;;;21.85;54.95;100218.89;107181;1258;110967;-67
2023/08/29 03:46:07;;;;;;;21.30;5.10;;;;;;;21.86;54.97;100220.98;107316;1257;108400;-66
2023/08/29 03:48:36;;;;;;;22.40;4.60;;;;;;;21.87;54.93;100224.69;107254;1257;97845;-64
2023/08/29 03:51:06;;;;;;;18.00;4.10;;;;;;;21.87;55.09;100225.41;107355;1257;97707;-65
2023/08/29 03:53:36;;;;;;;20.10;4.70;;;;;;;21.86;56.06;100224.31;107183;1254;111205;-66
2023/08/29 03:56:09;;;;;;;16.20;4.40;;;;;;;21.81;55.66;100226.46;107238;1257;110057;-65
2023/08/29 03:58:37;;;;;;;22.80;4.40;;;;;;;21.80;55.66;100226.93;107235;1260;108335;-66
2023/08/29 04:01:07;;;;;;;19.00;4.50;;;;;;;21.81;55.69;100225.30;107291;1257;97819;-66
2023/08/29 04:03:36;;;;;;;18.80;4.40;;;;;;;21.84;55.69;100224.16;107365;1254;98359;-65
2023/08/29 04:06:04;;;;;;;19.10;4.60;;;;;;;21.88;55.85;100224.55;107175;1257;111704;-65
2023/08/29 04:08:33;;;;;;;20.80;4.40;;;;;;;21.89;55.72;100225.80;107187;1254;109328;-65
2023/08/29 04:11:04;;;;;;;20.60;4.50;;;;;;;21.92;55.59;100224.55;107204;1254;107586;-64
2023/08/29 04:13:33;;;;;;;21.60;4.20;;;;;;;21.95;55.73;100229.26;107314;1259;97843;-65
2023/08/29 04:16:03;;;;;;;17.70;4.60;;;;;;;21.98;56.22;100228.59;107228;1258;97834;-64
2023/08/29 04:18:32;;;;;;;27.80;4.50;;;;;;;21.98;56.19;100233.26;107318;1260;111340;-64
2023/08/29 04:21:01;;;;;;;9.00;4.20;;;;;;;22.01;55.88;100230.28;107292;1254;110831;-65
2023/08/29 04:23:29;;;;;;;14.20;4.50;;;;;;;22.06;55.92;100232.92;107156;1260;108292;-66
2023/08/29 04:26:03;;;;;;;11.90;3.90;;;;;;;22.11;55.83;100231.75;107269;1259;97844;-66
2023/08/29 04:28:31;;;;;;;31.60;4.80;;;;;;;22.17;55.97;100231.11;107308;1259;97736;-66
2023/08/29 04:31:09;;;;;;;18.70;5.10;;;;;;;22.22;55.98;100224.94;107187;1257;111539;-65
2023/08/29 04:33:39;;;;;;;16.20;4.30;;;;;;;22.26;55.99;100226.63;107315;1254;110083;-66
2023/08/29 04:36:08;;;;;;;17.50;4.60;;;;;;;22.33;56.11;100225.57;107318;1255;107386;-65
2023/08/29 04:38:37;;;;;;;15.10;4.70;;;;;;;22.39;55.87;100228.45;107329;1257;97869;-66
2023/08/29 04:41:05;;;;;;;20.10;4.20;;;;;;;22.44;56.00;100229.70;107317;1254;97767;-66
2023/08/29 04:43:34;;;;;;;23.40;5.00;;;;;;;22.49;56.15;100230.35;107333;1258;111300;-66
2023/08/29 04:46:03;;;;;;;19.70;4.10;;;;;;;22.55;56.14;100227.30;107204;1255;109811;-65
2023/08/29 04:48:31;;;;;;;29.60;4.30;;;;;;;22.60;55.99;100229.84;107202;1260;108327;-65
2023/08/29 04:51:00;;;;;;;12.20;3.90;;;;;;;22.66;56.01;100230.48;107261;1258;97838;-67
2023/08/29 04:53:29;;;;;;;28.90;4.70;;;;;;;22.73;56.04;100232.14;107204;1257;97842;-66
2023/08/29 04:56:02;;;;;;;16.30;4.90;;;;;;;22.80;55.96;100230.24;107284;1257;111738;-65
2023/08/29 04:58:34;;;;;;;22.50;5.30;;;;;;;22.87;55.47;100230.96;107289;1259;109606;-65
2023/08/29 05:01:03;;;;;;;41.30;4.80;;;;;;;22.92;55.36;100228.23;107229;1258;106697;-65
2023/08/29 05:03:32;;;;;;;28.50;5.20;;;;;;;23.02;55.20;100230.84;107315;1254;97841;-65
2023/08/29 05:06:01;;;;;;;43.60;5.50;;;;;;;23.10;55.09;100230.20;107302;1259;97796;-65
2023/08/29 05:08:34;;;;;;;31.60;5.40;;;;;;;23.19;54.97;100229.45;107185;1254;112102;-66
2023/08/29 05:11:04;;;;;;;20.70;5.60;;;;;;;23.25;54.06;100225.23;107348;1258;108364;-65
2023/08/29 05:13:33;;;;;;;31.60;5.90;;;;;;;23.33;54.14;100229.52;107346;1254;107107;-67
2023/08/29 05:16:03;;;;;;;43.50;6.00;;;;;;;23.41;54.24;100228.07;107174;1257;97918;-66
2023/08/29 05:18:32;;;;;;;36.70;6.00;;;;;;;23.48;53.68;100222.20;107373;1257;98385;-65
2023/08/29 05:21:00;;;;;;;43.80;6.20;;;;;;;23.55;53.32;100220.41;107291;1256;112169;-65
2023/08/29 05:23:29;;;;;;;40.00;5.90;;;;;;;23.64;53.26;100218.58;107343;1258;109673;-66
2023/08/29 05:25:57;;;;;;;28.70;5.80;;;;;;;23.72;52.95;100216.81;107255;1257;108828;-66
2023/08/29 05:28:26;;;;;;;27.60;6.40;;;;;;;23.79;52.47;100217.35;107288;1258;97838;-66
2023/08/29 05:30:54;;;;;;;25.80;5.80;;;;;;;23.88;52.27;100210.86;107269;1258;97869;-65
2023/08/29 05:33:22;;;;;;;33.40;5.90;;;;;;;23.97;51.89;100214.45;107337;1254;111798;-66
2023/08/29 05:35:51;;;;;;;36.40;6.10;;;;;;;24.05;51.77;100216.97;107297;1255;109917;-66
2023/08/29 05:38:20;;;;;;;25.20;6.50;;;;;;;24.14;51.20;100217.83;107260;1259;107805;-68
2023/08/29 05:40:52;;;;;;;29.40;6.40;;;;;;;24.24;50.95;100217.34;107301;1257;97831;-67
2023/08/29 05:43:20;;;;;;;29.20;5.30;;;;;;;24.35;50.55;100220.60;107339;1254;98411;-66
2023/08/29 05:45:48;;;;;;;24.70;5.20;;;;;;;24.45;50.43;100218.21;107336;1260;112223;-66
2023/08/29 05:48:17;;;;;;;18.80;5.00;;;;;;;24.55;49.87;100221.86;107354;1257;109046;-66
2023/08/29 05:50:49;;;;;;;19.80;4.70;;;;;;;24.67;49.55;100222.00;107328;1254;108324;-66
2023/08/29 05:53:18;;;;;;;13.80;3.90;;;;;;;24.78;49.37;100221.95;107364;1260;97848;-67
2023/08/29 05:55:47;;;;;;;23.60;4.50;;;;;;;24.89;48.74;100223.04;107302;1259;97716;-67
2023/08/29 05:58:16;;;;;;;20.00;4.20;;;;;;;25.01;48.68;100218.33;107159;1262;111734;-66
2023/08/29 06:00:44;;;;;;;16.10;3.70;;;;;;;25.12;48.42;100215.23;107285;1259;109251;-65
2023/08/29 06:03:12;;;;;;;25.90;4.30;;;;;;;25.23;48.20;100213.02;107344;1257;108378;-66
2023/08/29 06:05:41;;;;;;;26.20;4.40;;;;;;;25.34;47.57;100209.56;107262;1257;97840;-65
2023/08/29 06:08:11;;;;;;;23.60;4.20;;;;;;;25.47;47.29;100206.84;107404;1254;98362;-66
2023/08/29 06:10:47;;;;;;;31.20;4.40;;;;;;;25.59;47.24;100209.41;107313;1259;112138;-65
2023/08/29 06:13:16;;;;;;;14.10;4.50;;;;;;;25.71;46.73;100216.04;107342;1255;108909;-65
2023/08/29 06:15:45;;;;;;;29.00;4.40;;;;;;;25.81;46.87;100213.01;107306;1260;107852;-64
2023/08/29 06:18:13;;;;;;;27.10;4.50;;;;;;;25.90;46.64;100215.02;107253;1257;97841;-64
2023/08/29 06:20:41;;;;;;;22.20;4.20;;;;;;;26.00;46.51;100213.41;107280;1257;97752;-65
2023/08/29 06:23:09;;;;;;;31.60;4.60;;;;;;;26.10;46.42;100209.43;107314;1260;111976;-65
2023/08/29 06:25:38;;;;;;;26.50;4.80;;;;;;;26.21;46.28;100214.29;107329;1259;108701;-66
2023/08/29 06:28:07;;;;;;;20.70;4.30;;;;;;;26.29;46.15;100210.54;107308;1254;107416;-65
2023/08/29 06:30:35;;;;;;;17.30;4.30;;;;;;;26.38;45.67;100213.52;107287;1258;97850;-66
2023/08/29 06:33:06;;;;;;;12.20;3.80;;;;;;;26.49;45.56;100212.39;107333;1254;98376;-65
2023/08/29 06:35:37;;;;;;;30.80;4.00;;;;;;;26.60;44.94;100207.84;107363;1254;112068;-65
2023/08/29 06:38:06;;;;;;;27.60;5.30;;;;;;;26.74;44.71;100213.09;107404;1254;109936;-65
2023/08/29 06:40:36;;;;;;;19.80;4.00;;;;;;;26.87;44.67;100214.88;107304;1254;108302;-66
2023/08/29 06:43:04;;;;;;;15.20;4.00;;;;;;;27.01;44.50;100215.31;107307;1254;97917;-66
2023/08/29 06:45:33;;;;;;;11.20;3.40;;;;;;;27.14;44.38;100211.79;107337;1254;97810;-65
2023/08/29 06:48:01;;;;;;;24.30;4.10;;;;;;;27.28;43.01;100211.08;107300;1257;112637;-67
2023/08/29 06:50:30;;;;;;;32.70;4.30;;;;;;;27.44;41.94;100205.79;107354;1254;110035;-67
2023/08/29 06:52:58;;;;;;;17.60;3.70;;;;;;;27.64;41.37;100208.02;107293;1260;108324;-67
2023/08/29 06:55:27;;;;;;;21.80;3.50;;;;;;;27.81;41.30;100208.63;107263;1256;97820;-65
2023/08/29 06:57:55;;;;;;;14.10;3.80;;;;;;;27.97;41.46;100207.02;107324;1254;98364;-65
2023/08/29 07:00:24;;;;;;;19.20;4.50;;;;;;;28.10;41.72;100207.47;107305;1257;112199;-66
2023/08/29 07:02:52;;;;;;;16.10;3.60;;;;;;;28.21;41.39;100207.92;107305;1254;110096;-66
2023/08/29 07:05:20;;;;;;;17.60;3.80;;;;;;;28.32;41.18;100210.46;107253;1254;108251;-65
2023/08/29 07:07:49;;;;;;;14.70;3.70;;;;;;;28.41;41.21;100213.06;107250;1255;97925;-65
2023/08/29 07:10:17;;;;;;;20.90;4.00;;;;;;;28.54;40.01;100216.33;107280;1254;97862;-65
2023/08/29 07:12:48;;;;;;;14.40;4.10;;;;;;;28.68;39.88;100219.16;107399;1257;112043;-64
2023/08/29 07:15:17;;;;;;;14.50;3.90;;;;;;;28.81;39.57;100218.16;107345;1254;108272;-65
2023/08/29 07:17:45;;;;;;;11.60;4.30;;;;;;;28.93;39.68;100222.97;107342;1258;108417;-65
2023/08/29 07:20:15;;;;;;;21.00;4.50;;;;;;;29.03;39.28;100217.05;107288;1257;97828;-66
2023/08/29 07:22:44;;;;;;;10.00;3.50;;;;;;;29.15;39.11;100218.52;107291;1258;99550;-65
2023/08/29 07:25:13;;;;;;;30.10;4.20;;;;;;;29.27;39.02;100218.27;107293;1254;111806;-65
2023/08/29 07:27:41;;;;;;;16.60;3.30;;;;;;;29.39;39.00;100218.08;107320;1257;108627;-66
2023/08/29 07:30:14;;;;;;;13.90;3.50;;;;;;;29.50;38.52;100214.21;107172;1260;108277;-65
2023/08/29 07:32:44;;;;;;;19.60;3.40;;;;;;;29.62;38.43;100215.65;107281;1257;97851;-66
2023/08/29 07:35:13;;;;;;;18.70;3.50;;;;;;;29.74;37.93;100212.65;107300;1257;97713;-66
2023/08/29 07:37:42;;;;;;;22.10;3.60;;;;;;;29.86;37.45;100210.41;107270;1257;111452;-64
2023/08/29 07:40:11;;;;;;;18.10;3.70;;;;;;;30.00;37.05;100207.33;107195;1257;109314;-66
2023/08/29 07:42:39;;;;;;;18.50;3.50;;;;;;;30.14;37.01;100202.63;107332;1257;107068;-65
2023/08/29 07:45:08;;;;;;;17.90;3.50;;;;;;;30.28;36.81;100196.37;107272;1254;97927;-65
2023/08/29 07:47:36;;;;;;;21.60;3.50;;;;;;;30.42;35.91;100190.93;107412;1257;97853;-66
2023/08/29 07:50:05;;;;;;;19.70;4.20;;;;;;;30.57;35.90;100192.30;107259;1257;112350;-65
2023/08/29 07:52:34;;;;;;;11.90;3.40;;;;;;;30.71;35.89;100186.66;107279;1256;109980;-67
2023/08/29 07:55:02;;;;;;;16.20;3.30;;;;;;;30.83;35.51;100190.60;107292;1254;106944;-66
2023/08/29 07:57:30;;;;;;;21.10;3.80;;;;;;;30.97;35.15;100187.47;107267;1257;97847;-66
2023/08/29 07:59:59;;;;;;;17.90;3.80;;;;;;;31.10;35.30;100186.45;107341;1254;98589;-66
2023/08/29 08:02:28;;;;;;;11.30;4.10;;;;;;;31.23;34.88;100185.26;107331;1257;112046;-65
2023/08/29 08:04:56;;;;;;;25.60;4.20;;;;;;;31.36;34.45;100183.48;107241;1257;108837;-66
2023/08/29 08:07:24;;;;;;;18.80;3.40;;;;;;;31.49;34.11;100186.05;107273;1257;107956;-66
2023/08/29 08:09:53;;;;;;;12.70;3.10;;;;;;;31.61;34.33;100184.44;107270;1254;97835;-66
2023/08/29 08:12:21;;;;;;;13.90;3.50;;;;;;;31.73;33.76;100177.64;107300;1257;97748;-67
2023/08/29 08:14:52;;;;;;;10.60;3.30;;;;;;;31.84;33.58;100175.36;107275;1257;111911;-66
2023/08/29 08:17:21;;;;;;;10.70;3.20;;;;;;;31.98;33.48;100169.70;107354;1254;109974;-66
2023/08/29 08:19:49;;;;;;;20.50;3.20;;;;;;;32.11;32.81;100165.92;107337;1254;108392;-66
2023/08/29 08:22:17;;;;;;;19.80;3.10;;;;;;;32.26;33.11;100163.00;107348;1254;98037;-66
2023/08/29 08:24:45;;;;;;;14.00;3.20;;;;;;;32.41;32.72;100165.93;107360;1254;98549;-66
2023/08/29 08:27:14;;;;;;;15.00;4.20;;;;;;;32.56;32.70;100172.30;107261;1257;111684;-66
2023/08/29 08:29:42;;;;;;;21.50;2.80;;;;;;;32.69;32.05;100169.35;107359;1254;108944;-66
2023/08/29 08:32:10;;;;;;;10.50;2.80;;;;;;;32.83;32.27;100168.17;107295;1254;108074;-65
2023/08/29 08:34:38;;;;;;;11.80;3.20;;;;;;;33.00;31.86;100165.27;107321;1257;97821;-66
2023/08/29 08:37:08;;;;;;;13.10;3.10;;;;;;;33.17;30.92;100162.92;107313;1257;97758;-66
2023/08/29 08:39:36;;;;;;;8.70;2.70;;;;;;;33.34;31.14;100157.66;107333;1254;112121;-66
2023/08/29 08:42:05;;;;;;;8.40;2.50;;;;;;;33.38;31.07;100160.27;107296;1254;110054;-65
2023/08/29 08:44:34;;;;;;;10.70;2.90;;;;;;;33.47;31.13;100156.77;107323;1257;106480;-65
2023/08/29 08:47:05;;;;;;;10.70;3.30;;;;;;;33.65;30.69;100161.59;107276;1260;97880;-65
2023/08/29 08:49:34;;;;;;;14.80;3.90;;;;;;;33.84;30.53;100158.79;107362;1254;99336;-65
2023/08/29 08:52:06;;;;;;;12.30;3.30;;;;;;;34.05;29.70;100155.20;107336;1254;112227;-66
2023/08/29 08:54:35;;;;;;;11.30;3.10;;;;;;;34.27;28.85;100152.98;107308;1257;109981;-65
2023/08/29 08:57:04;;;;;;;10.30;3.10;;;;;;;34.46;28.92;100150.89;107351;1254;108289;-66
2023/08/29 08:59:32;;;;;;;15.10;3.20;;;;;;;34.67;29.14;100148.63;107319;1254;97714;-65
2023/08/29 09:02:00;;;;;;;13.10;4.10;;;;;;;34.90;29.02;100145.77;107332;1257;97714;-65
2023/08/29 09:04:29;;;;;;;19.30;3.90;;;;;;;35.18;28.94;100144.15;107342;1254;111173;-65
2023/08/29 09:06:57;;;;;;;12.90;2.90;;;;;;;35.47;28.08;100144.45;107321;1257;109623;-65
2023/08/29 09:09:26;;;;;;;22.90;3.50;;;;;;;35.75;27.72;100140.86;107407;1254;108343;-65
2023/08/29 09:11:56;;;;;;;10.10;3.10;;;;;;;36.02;26.63;100136.72;107323;1257;97843;-65
2023/08/29 09:14:26;;;;;;;11.20;3.40;;;;;;;36.27;25.99;100134.98;107304;1259;97802;-65
2023/08/29 09:17:04;;;;;;;17.10;3.70;;;;;;;36.53;25.72;100126.45;107188;1257;111057;-64
2023/08/29 09:19:33;;;;;;;12.70;2.90;;;;;;;36.80;24.75;100134.80;107297;1257;109538;-65
2023/08/29 09:22:01;;;;;;;13.00;3.20;;;;;;;37.05;24.68;100138.79;107198;1256;107778;-65
2023/08/29 09:24:36;;;;;;;9.10;2.60;;;;;;;37.39;24.64;100133.60;107306;1254;97842;-64
2023/08/29 09:27:11;;;;;;;13.70;3.20;;;;;;;37.77;23.76;100131.98;107428;1257;97739;-66
2023/08/29 09:29:39;;;;;;;7.70;3.00;;;;;;;38.16;23.13;100134.48;107296;1257;111661;-66
2023/08/29 09:32:13;;;;;;;11.50;2.60;;;;;;;38.63;23.11;100133.80;107261;1254;110742;-66
2023/08/29 09:34:42;;;;;;;14.00;2.60;;;;;;;39.33;22.51;100128.56;107342;1257;108771;-66
2023/08/29 09:37:12;;;;;;;10.40;2.70;;;;;;;40.01;22.28;100128.42;107304;1254;97947;-66
2023/08/29 09:39:40;;;;;;;11.90;2.90;;;;;;;40.64;21.69;100124.70;107392;1254;97867;-66
2023/08/29 09:42:10;;;;;;;12.30;2.60;;;;;;;41.26;20.78;100121.01;107231;1254;111919;-67
2023/08/29 09:44:40;;;;;;;13.80;3.10;;;;;;;41.85;19.59;100121.36;107323;1257;109266;-66
2023/08/29 09:47:10;;;;;;;12.40;2.30;;;;;;;42.33;19.54;100118.71;107326;1254;107192;-67
2023/08/29 09:49:43;;;;;;;9.10;2.60;;;;;;;42.83;18.52;100120.70;107361;1254;97925;-65
2023/08/29 09:52:16;;;;;;;10.60;2.70;;;;;;;43.26;18.09;100112.42;107324;1254;97841;-65
2023/08/29 09:54:48;;;;;;;10.50;3.00;;;;;;;43.61;18.21;100107.80;107274;1257;111620;-66
2023/08/29 09:57:19;;;;;;;14.70;3.10;;;;;;;43.87;17.83;100105.66;106880;1257;611043;-65
2023/08/29 09:59:51;;;;;;;12.10;2.50;;;;;;;44.24;18.00;100109.46;107274;1254;108396;-65
2023/08/29 10:02:21;;;;;;;11.90;2.50;;;;;;;44.72;17.65;100106.48;107321;1254;97819;-66
2023/08/29 10:05:06;;;;;;;18.30;2.60;;;;;;;45.00;16.28;100098.88;107315;1254;98493;-66
2023/08/29 10:07:41;;;;;;;13.70;2.50;;;;;;;45.41;16.75;100093.39;107291;1254;112824;-66
2023/08/29 10:10:10;;;;;;;14.70;2.50;;;;;;;45.90;16.31;100102.19;107430;1254;110067;-66
2023/08/29 10:12:39;;;;;;;5.80;2.30;;;;;;;46.25;15.90;100103.05;107306;1256;107271;-66
2023/08/29 10:15:09;;;;;;;11.50;2.90;;;;;;;46.56;15.37;100096.98;107358;1254;97918;-67
2023/08/29 10:17:39;;;;;;;9.80;2.90;;;;;;;46.75;14.64;100093.82;107207;1260;98068;-65
2023/08/29 10:20:12;;;;;;;11.80;2.50;;;;;;;46.96;15.18;100094.95;107421;1254;112257;-64
2023/08/29 10:22:45;;;;;;;15.70;2.50;;;;;;;47.21;14.62;100095.51;107321;1257;109900;-64
2023/08/29 10:25:14;;;;;;;12.20;2.00;;;;;;;47.30;14.31;100091.69;107416;1257;108230;-65
2023/08/29 10:27:42;;;;;;;14.10;2.80;;;;;;;47.39;14.71;100087.54;107311;1254;97847;-66
2023/08/29 10:30:11;;;;;;;4.60;1.80;;;;;;;47.74;14.64;100081.11;107373;1257;98357;-65
2023/08/29 10:32:42;;;;;;;6.40;1.90;;;;;;;48.12;13.98;100076.02;107335;1254;110873;-66
2023/08/29 10:35:18;;;;;;;8.90;2.00;;;;;;;48.47;13.58;100068.74;107338;1257;109091;-65
2023/08/29 10:37:51;;;;;;;9.80;2.20;;;;;;;48.87;13.39;100069.62;107194;1254;108836;-66
2023/08/29 10:40:21;;;;;;;11.60;2.60;;;;;;;48.92;13.16;100059.15;107328;1257;97838;-67
2023/08/29 10:43:00;;;;;;;11.90;2.20;;;;;;;48.81;12.96;100048.79;107485;1254;97854;-66
2023/08/29 10:45:49;;;;;;;13.50;2.60;;;;;;;48.94;12.77;100060.60;107289;1257;111729;-65
2023/08/29 10:48:19;;;;;;;10.10;2.40;;;;;;;48.94;12.78;100062.89;107313;1254;109978;-65
2023/08/29 10:51:08;;;;;;;15.30;2.40;;;;;;;48.94;12.42;100059.14;107239;1257;107343;-65
2023/08/29 10:53:43;;;;;;;12.20;2.10;;;;;;;49.17;12.36;100058.27;107230;1254;97924;-65
2023/08/29 10:56:12;;;;;;;6.10;1.90;;;;;;;49.30;12.30;100060.03;107336;1257;98369;-66
2023/08/29 10:58:43;;;;;;;6.20;2.10;;;;;;;49.52;12.63;100059.39;107360;1257;112008;-66
2023/08/29 11:01:36;;;;;;;12.70;1.80;;;;;;;49.78;12.45;100055.80;107227;1257;109071;-66
2023/08/29 11:04:13;;;;;;;10.90;1.80;;;;;;;50.04;12.01;100049.33;107229;1256;108725;-66
2023/08/29 11:06:56;;;;;;;14.70;1.80;;;;;;;50.17;11.94;100044.94;107296;1256;97933;-65
2023/08/29 11:09:25;;;;;;;12.30;2.10;;;;;;;50.31;11.63;100046.08;107305;1257;99643;-65
2023/08/29 11:12:10;;;;;;;10.00;2.00;;;;;;;50.31;11.53;100038.73;107323;1257;111466;-66
2023/08/29 11:14:51;;;;;;;19.10;2.90;;;;;;;50.51;11.59;100028.09;107253;1257;109760;-66
2023/08/29 11:17:23;;;;;;;13.20;2.40;;;;;;;50.62;11.08;100036.69;107273;1256;109238;-65
2023/08/29 11:20:02;;;;;;;13.60;2.30;;;;;;;50.49;11.12;100029.93;107247;1257;99151;-66